Pagrindinis puslapis
METAR-TAF:

METAR-TAF

Oro uostai :

Malė, Maldyvai

platuma: 04-12N, ilguma: 073-32E, Aukštis: 2 m

Dabartinis oras

Ataskaita buvo paskelbta 1 valandą ir 18 minutes, ne 02:00 UTC
Vėjas 7 kt iš Pietų/Pietvakarių
Temperatūra 29°C
Drėgmė 74%
Slėgis 1011 hPa
Matomumas 10 km arba daugiau
Mažai debesys ne aukštis 1800 ft
Mažai debesys ne aukštis 1900 ft, Liūtiniai kamuoliniai debesys.
Su prošvaistėmis ne aukštis 28000 ft

METAR: VRMM 220200Z 21007KT 9999 FEW018 FEW019CB BKN280 29/24 Q1011 CB NNW NOSIG

Laikas: 08:18 (03:18 UTC)

Prognozė

Ataskaita buvo paskelbta 4 valandos ir 18 minutes, ne 23:00 UTC
Prognozė galioja nuo 22 metu 00 UTC su 23 metu 06 UTC
Vėjas 8 kt iš Pietų/Pietvakarių
Matomumas 10 km arba daugiau
Mažai debesys ne aukštis 1800 ft, aukštai iškilę kamuoliniai debesys.
Laikinai
nuo 22 metu 00 UTC su 22 metu 06 UTC
Mažai debesys ne aukštis 1800 ft, Liūtiniai kamuoliniai debesys.

TAF: VRMM 212300Z 2200/2306 21008KT 9999 FEW018TCU TEMPO 2200/2206 FEW018CB

Orai ataskaitas ir orų prognozės (METAR, TAF).

turimą stotys yra geltonos ir raudonos taškus žemėlapyje.

Perkelti pele per norėdami pamatyti stoties vardą.

Tada spustelėkite, norėdami matyti oro stebėjimo ir prognozės.

Norėdami pakeisti žemėlapį: spustelėkite ant žalios mygtukų su juodo kryžiaus žemyn,; žalią mygtuką su brūkšneliu, jei norite nutolinti; arba žalių rodyklių gretimoms žemėlapius.


METAR-TAF: